Time;durP1;ratioP1;P1;durP2;ratioP2;P2;SDS_P1;SDS_P2;PMS_P1;PMS_P2;Temp;Humidity;BMP_temperature;BMP_pressure;BME280_temperature;BME280_humidity;BME280_pressure;Samples;Min_cycle;Max_cycle;Signal;HPM_P1;HPM_P2
2021/03/18 00:01:24;;;;;;;10.58;5.78;;;;;;;3.01;92.12;98497.48;1651715;84;21306;-84
2021/03/18 00:03:52;;;;;;;10.63;5.60;;;;;;;2.93;92.30;98497.52;1661783;83;21816;-84
2021/03/18 00:06:19;;;;;;;10.20;4.80;;;;;;;2.98;91.50;98496.64;1655020;81;21284;-88
2021/03/18 00:08:47;;;;;;;11.73;5.33;;;;;;;3.01;90.89;98503.91;1701723;83;21298;-83
2021/03/18 00:11:18;;;;;;;9.58;5.25;;;;;;;2.97;90.65;98502.62;1652930;87;21294;-81
2021/03/18 00:13:46;;;;;;;8.90;4.33;;;;;;;2.96;90.84;98501.33;1680213;82;21221;-82
2021/03/18 00:16:14;;;;;;;8.55;4.47;;;;;;;2.99;90.82;98509.05;1678112;84;22121;-82
2021/03/18 00:18:49;;;;;;;17.23;7.67;;;;;;;2.98;90.88;98514.61;1677846;82;21264;-81
2021/03/18 00:21:17;;;;;;;9.45;4.75;;;;;;;3.01;90.91;98511.17;1703625;80;21255;-82
2021/03/18 00:23:49;;;;;;;11.08;5.20;;;;;;;3.01;90.91;98509.89;1671254;81;21629;-83
2021/03/18 00:26:29;;;;;;;10.85;4.83;;;;;;;3.02;90.89;98508.16;1630936;87;21327;-81
2021/03/18 00:28:59;;;;;;;8.85;4.53;;;;;;;3.03;90.93;98510.73;1651842;83;21252;-85
2021/03/18 00:31:30;;;;;;;8.53;4.00;;;;;;;3.01;91.22;98511.61;1674227;82;21265;-84
2021/03/18 00:33:58;;;;;;;9.78;5.25;;;;;;;2.99;91.24;98506.03;1690557;81;21162;-81
2021/03/18 00:36:27;;;;;;;9.85;5.35;;;;;;;3.03;91.16;98502.19;1729711;78;21099;-84
2021/03/18 00:38:58;;;;;;;11.80;5.28;;;;;;;2.98;91.35;98503.47;1725836;82;21257;-84
2021/03/18 00:41:26;;;;;;;9.80;5.10;;;;;;;2.94;91.60;98501.77;1744795;79;21338;-86
2021/03/18 00:43:54;;;;;;;12.40;5.58;;;;;;;2.90;91.62;98499.64;1767653;77;21241;-84
2021/03/18 00:46:21;;;;;;;10.35;4.97;;;;;;;2.89;91.47;98504.37;1739545;79;21255;-84
2021/03/18 00:48:49;;;;;;;14.25;5.83;;;;;;;2.88;91.66;98503.08;1784742;78;21213;-84
2021/03/18 00:51:18;;;;;;;9.18;4.62;;;;;;;2.85;91.87;98503.11;1777075;78;21265;-83
2021/03/18 00:53:48;;;;;;;10.78;4.95;;;;;;;2.85;91.68;98496.25;1722370;79;21149;-84
2021/03/18 00:56:21;;;;;;;10.93;5.10;;;;;;;2.81;91.47;98497.13;1748483;78;21510;-85
2021/03/18 00:58:50;;;;;;;9.43;5.15;;;;;;;2.75;91.96;98497.16;1781843;78;21240;-84
2021/03/18 01:01:23;;;;;;;10.78;4.50;;;;;;;2.74;91.88;98490.30;1778978;77;21216;-84
2021/03/18 01:03:51;;;;;;;8.10;4.37;;;;;;;2.75;91.77;98491.58;1789758;77;21217;-84
2021/03/18 01:06:26;;;;;;;9.78;4.75;;;;;;;2.72;91.93;98490.29;1779678;77;21146;-85
2021/03/18 01:08:56;;;;;;;7.45;4.10;;;;;;;2.76;91.75;98489.86;1781018;79;21248;-84
2021/03/18 01:11:31;;;;;;;10.05;4.47;;;;;;;2.66;92.33;98482.61;1795096;77;21126;-83
2021/03/18 01:14:02;;;;;;;11.08;5.03;;;;;;;2.78;91.54;98488.14;1763441;78;21245;-84
2021/03/18 01:16:34;;;;;;;7.65;4.25;;;;;;;2.73;91.93;98488.60;1816250;77;21263;-81
2021/03/18 01:29:34;;;;;;;9.30;5.22;;;;;;;2.72;91.69;98481.74;1732241;80;38684;-87
2021/03/18 01:32:02;;;;;;;8.30;4.70;;;;;;;2.70;91.46;98480.46;1707884;84;21165;-87
2021/03/18 01:34:29;;;;;;;9.78;4.12;;;;;;;2.73;90.76;98484.31;1709692;83;21633;-89
2021/03/18 01:36:57;;;;;;;7.92;4.03;;;;;;;2.69;91.23;98487.75;1706365;83;21189;-90
2021/03/18 01:39:24;;;;;;;8.48;3.90;;;;;;;2.68;91.18;98482.61;1696090;79;21308;-83
2021/03/18 01:41:52;;;;;;;6.95;3.72;;;;;;;2.63;91.83;98485.64;1696044;84;21613;-80
2021/03/18 01:44:19;;;;;;;8.93;4.42;;;;;;;2.62;91.66;98486.05;1689028;82;21328;-80
2021/03/18 01:46:46;;;;;;;10.25;4.50;;;;;;;2.58;92.19;98490.33;1683633;80;21326;-81
2021/03/18 01:49:14;;;;;;;8.63;4.15;;;;;;;2.56;92.60;98487.35;1705510;80;21248;-80
2021/03/18 01:51:41;;;;;;;8.93;4.62;;;;;;;2.62;91.91;98487.77;1696856;82;21278;-81
2021/03/18 01:54:10;;;;;;;8.93;4.40;;;;;;;2.60;92.25;98490.34;1697693;80;21253;-80
2021/03/18 01:56:38;;;;;;;8.93;4.60;;;;;;;2.61;92.18;98486.92;1693232;80;21282;-82
2021/03/18 01:59:05;;;;;;;8.85;4.70;;;;;;;2.63;92.00;98489.06;1694252;80;21579;-80
2021/03/18 02:01:33;;;;;;;9.45;4.72;;;;;;;2.59;92.44;98493.77;1705867;80;21291;-82
2021/03/18 02:04:03;;;;;;;8.68;4.30;;;;;;;2.63;91.92;98492.91;1688466;80;21276;-82
2021/03/18 02:06:30;;;;;;;12.23;4.30;;;;;;;2.65;91.83;98494.19;1682432;82;21272;-80
2021/03/18 02:08:57;;;;;;;8.20;4.33;;;;;;;2.62;92.33;98501.45;1708700;81;21599;-82
2021/03/18 02:11:24;;;;;;;9.43;4.60;;;;;;;2.69;91.89;98501.02;1702242;78;21305;-80
2021/03/18 02:13:52;;;;;;;7.60;4.47;;;;;;;2.68;91.81;98501.86;1672249;84;21332;-80
2021/03/18 02:16:20;;;;;;;7.10;4.20;;;;;;;2.69;92.04;98504.88;1667223;85;21355;-79
2021/03/18 02:19:11;;;;;;;8.45;4.58;;;;;;;2.76;91.52;98503.54;1654594;85;21310;-80
2021/03/18 02:22:02;;;;;;;8.43;4.42;;;;;;;2.77;91.39;98505.70;1662342;81;21174;-81
2021/03/18 02:24:53;;;;;;;8.50;4.30;;;;;;;2.77;91.35;98509.55;1687246;83;21246;-82
2021/03/18 02:27:59;;;;;;;8.43;4.47;;;;;;;2.77;91.29;98507.83;1687833;79;21501;-82
2021/03/18 02:31:06;;;;;;;7.87;4.37;;;;;;;2.77;91.42;98510.39;1652709;83;21405;-84
2021/03/18 02:34:14;;;;;;;8.00;4.50;;;;;;;2.70;91.65;98518.11;1651004;83;21245;-84
2021/03/18 02:36:47;;;;;;;9.75;4.60;;;;;;;2.66;91.82;98527.97;1593255;84;21983;-84
2021/03/18 02:39:38;;;;;;;9.10;4.78;;;;;;;2.73;91.06;98524.09;1768608;79;24686;-85
2021/03/18 02:42:10;;;;;;;8.43;4.65;;;;;;;2.59;92.12;98530.55;1757684;81;21402;-85
2021/03/18 02:44:41;;;;;;;12.65;5.10;;;;;;;2.56;92.19;98529.26;1745411;81;21268;-84
2021/03/18 02:47:11;;;;;;;8.78;4.62;;;;;;;2.56;91.83;98533.11;1738966;82;21303;-83
2021/03/18 02:49:46;;;;;;;12.05;4.53;;;;;;;2.56;91.89;98530.55;1749899;80;21186;-84
2021/03/18 02:52:18;;;;;;;8.50;4.55;;;;;;;2.59;91.65;98534.84;1693760;82;21150;-83
2021/03/18 02:54:46;;;;;;;8.30;4.10;;;;;;;2.58;91.55;98534.39;1711126;82;21276;-83
2021/03/18 02:57:16;;;;;;;8.25;4.42;;;;;;;2.54;91.97;98532.25;1711444;80;21205;-84
2021/03/18 02:59:47;;;;;;;9.40;4.87;;;;;;;2.55;92.05;98535.27;1671282;83;21325;-83
2021/03/18 03:02:19;;;;;;;9.10;4.62;;;;;;;2.59;92.01;98533.11;1710628;80;21405;-84
2021/03/18 03:04:48;;;;;;;8.88;4.67;;;;;;;2.62;92.24;98539.09;1697140;84;21128;-84
2021/03/18 03:07:25;;;;;;;10.70;5.12;;;;;;;2.69;91.64;98544.66;1711934;81;21153;-84
2021/03/18 03:09:54;;;;;;;9.40;4.47;;;;;;;2.70;91.72;98544.63;1685771;81;21185;-84
2021/03/18 03:12:26;;;;;;;8.00;4.70;;;;;;;2.72;91.65;98546.77;1750564;78;21261;-84
2021/03/18 03:14:56;;;;;;;7.65;4.05;;;;;;;2.69;91.64;98545.94;1746697;82;21110;-85
2021/03/18 03:17:26;;;;;;;8.38;4.22;;;;;;;2.71;91.44;98549.36;1753496;79;21174;-84
2021/03/18 03:19:57;;;;;;;9.00;4.87;;;;;;;2.71;91.50;98549.36;1706995;82;21114;-84
2021/03/18 03:22:25;;;;;;;10.95;5.00;;;;;;;2.74;91.33;98545.48;1754615;79;21296;-84
2021/03/18 03:24:57;;;;;;;9.58;4.87;;;;;;;2.79;91.05;98543.34;1736285;82;21717;-84
2021/03/18 03:27:26;;;;;;;8.28;4.40;;;;;;;2.77;90.86;98551.91;1670810;84;21277;-85
2021/03/18 03:29:54;;;;;;;8.33;4.35;;;;;;;2.77;90.90;98550.63;1707222;81;21323;-84
2021/03/18 03:32:22;;;;;;;9.20;4.58;;;;;;;2.73;90.93;98551.05;1708070;84;21199;-85
2021/03/18 03:34:49;;;;;;;9.70;4.90;;;;;;;2.70;91.41;98549.77;1734607;81;21126;-85
2021/03/18 03:37:17;;;;;;;8.60;4.60;;;;;;;2.69;91.52;98550.64;1737087;82;21296;-83
2021/03/18 03:39:44;;;;;;;8.75;4.72;;;;;;;2.68;91.59;98551.48;1709503;81;21166;-84
2021/03/18 03:42:12;;;;;;;7.17;3.65;;;;;;;2.64;91.64;98552.78;1694396;84;21153;-84
2021/03/18 03:44:39;;;;;;;8.18;4.45;;;;;;;2.60;91.78;98553.20;1702676;79;21271;-82
2021/03/18 03:47:09;;;;;;;7.33;4.00;;;;;;;2.57;91.83;98560.49;1641638;81;21233;-84
2021/03/18 03:49:38;;;;;;;8.58;4.83;;;;;;;2.59;91.52;98559.22;1670999;81;21326;-84
2021/03/18 03:52:22;;;;;;;9.83;4.50;;;;;;;2.57;92.23;98566.06;1723343;81;21251;-85
2021/03/18 03:55:06;;;;;;;8.45;4.30;;;;;;;2.57;92.10;98565.63;1671070;81;21257;-84
2021/03/18 03:57:40;;;;;;;;;;;;;;;2.59;92.25;98560.50;1706017;82;21245;-84
2021/03/18 04:00:09;;;;;;;9.13;4.70;;;;;;;2.65;91.58;98567.34;1689168;83;20193;-82
2021/03/18 04:02:39;;;;;;;9.20;5.03;;;;;;;2.66;91.68;98562.61;1677639;85;21252;-84
2021/03/18 04:05:08;;;;;;;9.10;4.47;;;;;;;2.67;92.23;98563.06;1670962;80;21254;-84
2021/03/18 04:07:37;;;;;;;8.90;4.75;;;;;;;2.72;91.70;98562.16;1680048;79;21308;-83
2021/03/18 04:10:07;;;;;;;9.10;4.65;;;;;;;2.72;91.81;98560.03;1673192;85;21306;-84
2021/03/18 04:12:39;;;;;;;9.15;4.75;;;;;;;2.76;91.94;98569.44;1722617;82;21297;-84
2021/03/18 04:15:11;;;;;;;9.43;4.65;;;;;;;2.78;91.70;98571.56;1717907;80;21245;-83
2021/03/18 04:17:42;;;;;;;10.45;5.03;;;;;;;2.81;91.41;98575.42;1711072;80;21601;-84
2021/03/18 04:20:14;;;;;;;8.95;4.95;;;;;;;2.81;91.02;98575.86;1724187;80;21297;-85
2021/03/18 04:22:46;;;;;;;9.80;4.90;;;;;;;2.81;90.81;98571.58;1708601;80;21266;-84
2021/03/18 04:25:14;;;;;;;10.82;4.78;;;;;;;2.78;90.99;98575.42;1712221;82;21241;-83
2021/03/18 04:27:42;;;;;;;8.50;4.33;;;;;;;2.70;91.13;98569.45;1719818;80;21165;-85
2021/03/18 04:30:13;;;;;;;10.48;5.37;;;;;;;2.73;90.95;98565.61;1721556;83;21257;-84
2021/03/18 04:32:43;;;;;;;13.35;5.10;;;;;;;2.73;90.72;98574.16;1715104;80;21263;-84
2021/03/18 04:35:12;;;;;;;9.85;5.20;;;;;;;2.69;91.01;98574.17;1731631;83;21245;-83
2021/03/18 04:37:40;;;;;;;8.73;4.42;;;;;;;2.67;91.22;98579.30;1714974;81;21135;-84
2021/03/18 04:40:13;;;;;;;10.20;5.15;;;;;;;2.67;91.54;98584.88;1722567;82;21158;-84
2021/03/18 04:42:42;;;;;;;12.37;5.12;;;;;;;2.64;91.49;98583.58;1703844;80;21279;-85
2021/03/18 04:45:12;;;;;;;9.28;5.05;;;;;;;2.67;90.47;98595.14;1713893;81;21290;-83
2021/03/18 04:47:41;;;;;;;8.20;4.65;;;;;;;2.62;91.27;98591.71;1684623;80;21257;-83
2021/03/18 04:50:12;;;;;;;10.75;5.50;;;;;;;2.65;91.26;98589.16;1737336;80;21293;-84
2021/03/18 04:52:41;;;;;;;9.93;5.12;;;;;;;2.66;90.95;98590.41;1721398;81;21206;-83
2021/03/18 04:55:11;;;;;;;9.45;5.42;;;;;;;2.65;91.15;98596.86;1723728;83;21128;-83
2021/03/18 04:57:43;;;;;;;9.98;5.05;;;;;;;2.67;91.02;98606.25;1691644;81;21162;-84
2021/03/18 05:00:13;;;;;;;10.00;5.37;;;;;;;2.70;91.21;98605.38;1688032;83;21321;-83
2021/03/18 05:02:44;;;;;;;8.55;4.78;;;;;;;2.73;91.06;98601.55;1707969;83;21232;-84
2021/03/18 05:05:17;;;;;;;8.50;5.08;;;;;;;2.74;91.14;98600.23;1695337;80;21608;-83
2021/03/18 05:07:48;;;;;;;14.30;5.70;;;;;;;2.72;91.31;98606.23;1657706;82;21292;-84
2021/03/18 05:10:21;;;;;;;8.70;5.15;;;;;;;2.82;90.97;98605.80;1656760;84;21281;-84
2021/03/18 05:12:50;;;;;;;10.63;4.72;;;;;;;2.85;90.88;98601.52;1667293;81;21159;-84
2021/03/18 05:15:19;;;;;;;8.83;5.03;;;;;;;2.83;91.41;98605.80;1657227;83;21257;-84
2021/03/18 05:17:47;;;;;;;10.48;5.87;;;;;;;2.94;91.07;98612.19;1720743;82;21292;-84
2021/03/18 05:20:19;;;;;;;10.85;6.00;;;;;;;2.95;90.98;98611.34;1731277;82;21473;-83
2021/03/18 05:22:47;;;;;;;14.28;6.58;;;;;;;2.97;90.96;98618.61;1726685;81;21251;-82
2021/03/18 05:25:19;;;;;;;12.35;6.12;;;;;;;3.01;90.93;98619.47;1717378;82;21159;-82
2021/03/18 05:27:46;;;;;;;14.68;6.78;;;;;;;2.98;90.62;98622.47;1718852;81;21544;-84
2021/03/18 05:30:16;;;;;;;12.58;6.10;;;;;;;3.02;90.51;98625.86;1675733;85;21186;-84
2021/03/18 05:32:44;;;;;;;12.05;6.20;;;;;;;3.01;90.47;98622.88;1726600;81;21269;-84
2021/03/18 05:35:14;;;;;;;11.57;7.05;;;;;;;3.05;90.74;98630.16;1713085;83;21517;-84
2021/03/18 05:37:43;;;;;;;18.75;6.75;;;;;;;3.09;90.58;98630.58;1726872;83;21157;-84
2021/03/18 05:40:13;;;;;;;11.08;5.92;;;;;;;3.06;90.44;98636.55;1725652;80;21282;-84
2021/03/18 05:42:41;;;;;;;12.07;5.47;;;;;;;3.08;90.19;98630.13;1690814;84;21574;-84
2021/03/18 05:45:12;;;;;;;15.72;6.62;;;;;;;2.97;90.95;98636.15;1681014;84;21220;-83
2021/03/18 05:47:40;;;;;;;11.93;6.60;;;;;;;3.07;90.89;98633.58;1718534;82;21253;-83
2021/03/18 05:50:13;;;;;;;16.93;6.45;;;;;;;3.11;90.63;98630.14;1736844;80;21612;-83
2021/03/18 05:52:41;;;;;;;15.13;8.55;;;;;;;3.15;89.90;98633.12;1736932;82;21273;-82
2021/03/18 05:55:10;;;;;;;10.28;5.08;;;;;;;3.21;90.27;98634.39;1729309;82;21254;-81
2021/03/18 05:57:40;;;;;;;9.35;4.92;;;;;;;3.31;90.30;98641.20;1738434;82;21294;-83
2021/03/18 06:00:11;;;;;;;9.43;5.42;;;;;;;3.33;90.04;98633.06;1742963;82;21134;-83
2021/03/18 06:02:41;;;;;;;8.50;4.50;;;;;;;3.49;89.99;98647.14;1722123;83;21261;-84
2021/03/18 06:05:12;;;;;;;8.38;4.00;;;;;;;3.57;89.30;98644.11;1735445;81;21182;-85
2021/03/18 06:07:44;;;;;;;9.58;4.35;;;;;;;3.63;88.14;98648.38;1741458;82;21238;-84
2021/03/18 06:10:21;;;;;;;8.13;4.45;;;;;;;3.67;88.00;98649.63;1748779;81;21098;-84
2021/03/18 06:12:55;;;;;;;7.00;4.58;;;;;;;3.70;87.34;98651.33;1740834;82;21241;-84
2021/03/18 06:15:24;;;;;;;9.98;4.40;;;;;;;3.68;87.68;98653.92;1723531;82;21422;-84
2021/03/18 06:17:54;;;;;;;7.80;4.20;;;;;;;3.71;87.45;98660.33;1724275;82;21215;-84
2021/03/18 06:20:26;;;;;;;9.75;4.55;;;;;;;3.71;87.47;98660.77;1736393;82;21490;-84
2021/03/18 06:22:56;;;;;;;7.03;3.95;;;;;;;3.73;87.85;98662.89;1718820;82;21159;-84
2021/03/18 06:25:33;;;;;;;7.97;4.67;;;;;;;3.72;87.47;98662.45;1718982;82;21655;-83
2021/03/18 06:28:28;;;;;;;8.73;4.12;;;;;;;3.63;87.21;98664.64;1722696;82;21278;-83
2021/03/18 06:31:11;;;;;;;9.40;4.65;;;;;;;3.61;86.05;98666.81;1727774;82;21121;-83
2021/03/18 06:33:49;;;;;;;7.50;4.08;;;;;;;3.54;86.53;98678.81;1729784;81;21529;-84
2021/03/18 06:36:34;;;;;;;21.25;9.13;;;;;;;3.50;86.46;98675.83;1751377;79;21278;-84
2021/03/18 06:39:14;;;;;;;12.88;5.90;;;;;;;3.46;86.85;98680.14;1708145;79;21192;-91
2021/03/18 06:41:56;;;;;;;7.95;4.20;;;;;;;3.46;86.74;98686.98;1665080;85;21262;-86
2021/03/18 06:44:29;;;;;;;10.88;5.00;;;;;;;3.44;86.96;98689.98;1677168;85;21278;-84
2021/03/18 06:47:09;;;;;;;8.90;4.12;;;;;;;3.43;86.67;98689.13;1655709;85;21343;-85
2021/03/18 06:49:38;;;;;;;7.47;3.62;;;;;;;3.47;86.59;98688.70;1684314;83;21269;-85
2021/03/18 06:52:12;;;;;;;6.42;4.05;;;;;;;3.44;86.20;98688.26;1689780;83;21250;-84
2021/03/18 06:54:42;;;;;;;9.15;4.67;;;;;;;3.55;86.02;98694.67;1692737;83;21312;-84
2021/03/18 06:57:11;;;;;;;9.90;4.53;;;;;;;3.68;86.08;98693.77;1687247;82;21275;-84
2021/03/18 06:59:42;;;;;;;9.05;3.90;;;;;;;3.77;86.68;98694.16;1678088;85;21138;-84
2021/03/18 07:05:21;;;;;;;13.13;5.33;;;;;;;3.98;85.22;98704.80;1648369;86;21178;-90
2021/03/18 07:07:50;;;;;;;9.55;5.15;;;;;;;4.09;86.04;98703.00;1694558;82;21161;-90
2021/03/18 07:10:38;;;;;;;11.75;5.83;;;;;;;4.25;86.58;98705.50;1677939;79;21824;-92
2021/03/18 07:13:21;;;;;;;13.83;6.78;;;;;;;4.33;86.28;98706.30;1695652;83;21185;-92
2021/03/18 07:15:50;;;;;;;10.68;5.22;;;;;;;4.14;85.79;98674.26;1712238;80;21242;-90
2021/03/18 07:18:19;;;;;;;10.80;5.85;;;;;;;4.38;84.46;98709.72;1698838;84;21160;-91
2021/03/18 07:24:01;;;;;;;7.97;4.78;;;;;;;4.41;83.77;98714.82;1714255;82;21332;-92
2021/03/18 07:26:33;;;;;;;9.53;5.12;;;;;;;4.46;83.06;98714.38;1730175;78;21165;-91
2021/03/18 07:29:17;;;;;;;8.43;4.60;;;;;;;4.51;84.23;98707.45;1722376;80;21095;-84
2021/03/18 07:31:45;;;;;;;7.72;4.67;;;;;;;4.45;83.58;98708.79;1658869;79;21180;-91
2021/03/18 07:34:14;;;;;;;9.70;4.75;;;;;;;4.41;82.93;98697.25;1616373;85;21605;-87
2021/03/18 07:36:44;;;;;;;8.00;4.67;;;;;;;4.56;83.43;98707.00;1711275;78;21195;-92
2021/03/18 07:39:13;;;;;;;7.45;4.50;;;;;;;4.68;83.34;98701.36;1759513;80;21122;-83
2021/03/18 07:44:30;;;;;;;6.97;4.17;;;;;;;4.85;82.81;98698.19;1690571;83;21104;-90
2021/03/18 07:46:59;;;;;;;8.20;4.53;;;;;;;4.87;81.67;98692.59;1679061;83;21201;-89
2021/03/18 07:49:37;;;;;;;10.23;4.00;;;;;;;4.97;82.52;98696.82;1676775;82;21374;-91
2021/03/18 07:52:07;;;;;;;9.53;4.75;;;;;;;5.10;83.09;98700.56;1705026;81;21121;-92
2021/03/18 07:54:36;;;;;;;12.05;5.30;;;;;;;5.19;83.78;98700.45;1698447;80;21169;-87
2021/03/18 07:57:09;;;;;;;13.58;4.40;;;;;;;5.20;83.00;98697.03;1677216;82;21269;-85
2021/03/18 07:59:36;;;;;;;8.45;4.95;;;;;;;5.33;82.85;98699.03;1684877;82;21255;-83
2021/03/18 08:02:17;;;;;;;8.83;5.35;;;;;;;5.46;83.29;98700.63;1696611;83;21257;-83
2021/03/18 08:04:52;;;;;;;8.80;5.33;;;;;;;5.53;82.54;98702.69;1686475;85;21273;-83
2021/03/18 08:07:50;;;;;;;8.40;5.15;;;;;;;5.63;81.01;98709.89;1644171;82;21348;-88
2021/03/18 08:10:26;;;;;;;7.65;4.67;;;;;;;5.77;81.52;98703.72;1670305;83;21282;-84
2021/03/18 08:13:06;;;;;;;9.30;5.05;;;;;;;5.79;76.51;98707.58;1671030;83;21260;-84
2021/03/18 08:15:46;;;;;;;11.45;6.45;;;;;;;5.90;78.14;98704.41;1707338;81;21135;-86
2021/03/18 08:18:20;;;;;;;58.92;27.60;;;;;;;5.80;78.75;98676.17;1678949;79;21205;-88
2021/03/18 08:20:58;;;;;;;12.00;7.25;;;;;;;6.12;80.06;98699.00;1689382;84;21282;-84
2021/03/18 08:23:32;;;;;;;7.67;4.85;;;;;;;6.07;77.21;98696.50;1689287;83;21282;-84
2021/03/18 08:26:11;;;;;;;11.25;5.75;;;;;;;6.10;76.44;98701.59;1692735;84;21249;-85
2021/03/18 08:28:58;;;;;;;9.65;5.30;;;;;;;6.10;75.95;98696.88;1700832;82;21326;-84
2021/03/18 08:31:46;;;;;;;9.73;5.28;;;;;;;6.08;76.54;98703.34;1683911;83;21133;-85
2021/03/18 08:34:20;;;;;;;11.43;6.22;;;;;;;6.06;77.15;98701.22;1714042;80;21884;-87
2021/03/18 08:36:58;;;;;;;8.88;5.60;;;;;;;6.12;78.86;98708.03;1681172;83;21340;-83
2021/03/18 08:39:49;;;;;;;12.30;5.37;;;;;;;5.83;76.14;98699.34;1687983;85;21195;-91
2021/03/18 08:42:39;;;;;;;9.18;5.05;;;;;;;5.77;77.23;98707.59;1718201;81;21580;-84
2021/03/18 08:45:24;;;;;;;7.05;4.55;;;;;;;5.86;78.04;98709.19;1645641;78;21365;-92
2021/03/18 08:47:56;;;;;;;8.73;4.75;;;;;;;5.92;77.94;98705.23;1652408;82;21292;-85
2021/03/18 08:50:30;;;;;;;9.05;4.70;;;;;;;5.84;77.16;98707.06;1672004;82;21229;-83
2021/03/18 08:52:59;;;;;;;9.33;4.85;;;;;;;5.94;78.75;98702.65;1624334;86;21300;-83
2021/03/18 08:55:38;;;;;;;8.55;5.05;;;;;;;6.13;77.68;98709.76;1609640;86;21492;-85
2021/03/18 08:58:07;;;;;;;6.85;4.42;;;;;;;6.24;75.58;98709.60;1622776;85;21170;-85
2021/03/18 09:00:38;;;;;;;8.80;5.10;;;;;;;6.35;77.92;98707.73;1688937;82;21130;-90
2021/03/18 09:03:07;;;;;;;19.55;9.53;;;;;;;6.36;77.44;98710.27;1656515;80;21179;-94
2021/03/18 09:05:35;;;;;;;52.30;22.87;;;;;;;6.38;77.56;98705.94;1644249;87;21205;-93
2021/03/18 09:08:04;;;;;;;12.50;6.95;;;;;;;6.41;76.48;98705.50;1627082;84;21306;-86
2021/03/18 09:10:35;;;;;;;11.78;5.60;;;;;;;6.57;76.37;98710.41;1601323;87;21119;-86
2021/03/18 09:13:15;;;;;;;7.40;4.33;;;;;;;6.71;77.39;98707.61;1651982;82;21291;-91
2021/03/18 09:15:46;;;;;;;5.35;3.35;;;;;;;6.80;75.83;98710.48;1690998;80;21157;-92
2021/03/18 09:18:27;;;;;;;6.35;4.03;;;;;;;6.72;75.28;98717.50;1714498;81;21160;-91
2021/03/18 09:21:08;;;;;;;5.97;3.75;;;;;;;6.68;74.81;98710.67;1761300;80;21212;-84
2021/03/18 09:23:42;;;;;;;5.95;3.55;;;;;;;6.82;75.42;98716.92;1759334;80;21539;-86
2021/03/18 09:26:14;;;;;;;5.47;3.80;;;;;;;7.01;76.10;98714.91;1755591;78;22139;-92
2021/03/18 09:28:46;;;;;;;5.42;3.90;;;;;;;7.10;74.59;98714.31;1755842;78;21132;-88
2021/03/18 09:31:22;;;;;;;5.78;3.65;;;;;;;7.24;75.82;98720.53;1764324;79;21361;-86
2021/03/18 09:33:52;;;;;;;7.83;3.40;;;;;;;7.10;71.11;98725.06;1765693;81;21589;-84
2021/03/18 09:36:29;;;;;;;5.60;3.12;;;;;;;7.06;73.01;98720.83;1759717;81;21310;-86
2021/03/18 09:39:13;;;;;;;5.75;3.12;;;;;;;6.94;71.42;98720.17;1759863;79;21139;-85
2021/03/18 09:41:46;;;;;;;6.37;3.50;;;;;;;7.02;73.17;98721.77;1755610;79;21991;-91
2021/03/18 09:44:20;;;;;;;6.65;3.42;;;;;;;7.06;73.63;98714.37;1732885;82;21297;-81
2021/03/18 09:47:00;;;;;;;10.05;5.30;;;;;;;7.23;72.93;98711.50;1730538;83;21262;-82
2021/03/18 09:49:31;;;;;;;7.87;4.58;;;;;;;7.38;73.37;98711.20;1726219;80;21197;-84
2021/03/18 09:52:01;;;;;;;6.58;3.85;;;;;;;7.48;71.33;98711.48;1730965;83;21270;-86
2021/03/18 09:54:30;;;;;;;8.03;4.30;;;;;;;7.52;71.63;98708.36;1710536;83;21473;-85
2021/03/18 09:57:24;;;;;;;28.07;13.50;;;;;;;7.65;71.40;98717.61;1723243;78;21181;-94
2021/03/18 09:59:52;;;;;;;17.27;9.08;;;;;;;7.62;68.87;98706.45;1687930;84;21214;-93
2021/03/18 10:02:42;;;;;;;14.40;7.50;;;;;;;7.65;70.37;98702.53;1704758;80;21135;-92
2021/03/18 10:05:11;;;;;;;13.45;7.67;;;;;;;7.84;71.36;98708.18;1691355;79;21194;-90
2021/03/18 10:07:38;;;;;;;7.87;4.33;;;;;;;7.86;69.81;98710.29;1670593;85;21201;-85
2021/03/18 10:10:08;;;;;;;6.58;4.28;;;;;;;7.90;69.08;98710.67;1700459;82;21211;-91
2021/03/18 10:12:37;;;;;;;6.42;3.95;;;;;;;7.91;70.92;98711.91;1716087;82;21283;-93
2021/03/18 10:15:10;;;;;;;8.65;4.92;;;;;;;7.73;70.10;98718.76;1748250;80;21682;-91
2021/03/18 10:17:41;;;;;;;6.50;4.40;;;;;;;7.54;69.92;98718.24;1707560;80;21737;-91
2021/03/18 10:20:40;;;;;;;6.17;3.95;;;;;;;7.36;70.74;98711.26;1715558;80;21358;-93
2021/03/18 10:23:11;;;;;;;10.13;6.53;;;;;;;7.28;70.82;98725.19;1687723;84;21162;-93
2021/03/18 10:25:40;;;;;;;5.28;3.17;;;;;;;7.25;70.22;98723.52;1741598;79;21189;-93
2021/03/18 10:28:14;;;;;;;6.87;3.98;;;;;;;7.14;69.86;98730.18;1745536;79;21162;-93
2021/03/18 10:30:50;;;;;;;6.62;3.55;;;;;;;7.16;70.48;98731.42;1650702;81;21347;-91
2021/03/18 10:33:40;;;;;;;11.63;5.37;;;;;;;7.20;71.25;98722.73;1676187;80;21222;-91
2021/03/18 10:36:08;;;;;;;11.15;5.10;;;;;;;7.17;69.72;98721.52;1732165;81;21144;-90
2021/03/18 10:39:05;;;;;;;8.48;4.47;;;;;;;7.24;71.13;98726.13;1744432;81;21166;-93
2021/03/18 10:42:02;;;;;;;14.85;7.40;;;;;;;7.36;70.54;98719.02;1668582;86;21286;-93
2021/03/18 10:44:58;;;;;;;23.55;11.88;;;;;;;7.42;70.11;98721.94;1639015;87;21222;-94
2021/03/18 10:51:48;;;;;;;19.30;10.65;;;;;;;7.60;68.87;98718.57;1703319;83;21528;-87
2021/03/18 10:54:22;;;;;;;7.90;4.05;;;;;;;7.41;69.24;98715.49;1724184;82;21230;-85
2021/03/18 10:56:51;;;;;;;78.10;42.03;;;;;;;7.38;70.49;98724.14;1733266;81;21305;-85
2021/03/18 10:59:21;;;;;;;9.65;5.78;;;;;;;7.30;71.40;98716.96;1749791;81;21228;-86
2021/03/18 11:01:54;;;;;;;32.42;18.32;;;;;;;7.16;70.74;98714.20;1750024;81;21388;-85
2021/03/18 11:04:22;;;;;;;24.02;12.13;;;;;;;7.31;71.68;98705.75;1739160;82;21337;-84
2021/03/18 11:06:51;;;;;;;27.10;13.58;;;;;;;7.47;71.84;98705.87;1730162;82;21254;-85
2021/03/18 11:09:20;;;;;;;12.28;6.40;;;;;;;7.65;71.10;98705.97;1738136;81;21329;-82
2021/03/18 11:12:03;;;;;;;14.50;8.33;;;;;;;7.65;70.60;98705.12;1727383;82;21182;-82
2021/03/18 11:14:31;;;;;;;37.73;20.57;;;;;;;7.70;70.52;98705.86;1740003;81;21451;-83
2021/03/18 11:17:04;;;;;;;51.73;25.68;;;;;;;7.75;70.62;98698.42;1730848;82;21351;-82
2021/03/18 11:19:33;;;;;;;21.90;12.73;;;;;;;7.86;69.96;98691.76;1732008;81;21261;-80
2021/03/18 11:22:05;;;;;;;47.45;23.50;;;;;;;8.02;69.74;98694.88;1717439;82;21128;-83
2021/03/18 11:24:33;;;;;;;19.37;9.40;;;;;;;8.16;69.78;98695.43;1734975;82;21248;-83
2021/03/18 11:27:23;;;;;;;7.97;4.70;;;;;;;8.14;66.63;98691.17;1717493;82;21186;-84
2021/03/18 11:30:00;;;;;;;36.15;17.10;;;;;;;8.13;67.17;98690.30;1715762;82;21185;-84
2021/03/18 11:32:35;;;;;;;5.83;3.10;;;;;;;8.06;67.50;98682.73;1726403;82;21305;-84
2021/03/18 11:35:10;;;;;;;15.70;8.50;;;;;;;7.89;63.61;98684.36;1726741;82;21265;-84
2021/03/18 11:38:08;;;;;;;6.50;4.08;;;;;;;7.85;64.95;98676.25;1698604;83;21210;-84
2021/03/18 11:41:00;;;;;;;9.03;3.77;;;;;;;7.82;64.86;98675.01;1710637;80;21141;-93
2021/03/18 11:43:34;;;;;;;6.92;3.17;;;;;;;7.92;67.22;98675.25;1753581;82;21332;-92
2021/03/18 11:46:23;;;;;;;22.00;11.80;;;;;;;7.95;63.82;98677.31;1716777;83;21683;-85
2021/03/18 11:49:09;;;;;;;16.30;11.05;;;;;;;8.16;67.94;98678.59;1702160;82;21107;-85
2021/03/18 11:52:01;;;;;;;14.95;8.68;;;;;;;8.41;67.11;98677.19;1732883;82;21145;-85
2021/03/18 11:54:29;;;;;;;12.47;6.95;;;;;;;8.70;65.84;98670.91;1732438;80;21276;-86
2021/03/18 11:56:57;;;;;;;9.55;5.05;;;;;;;8.95;64.58;98665.98;1731762;80;21668;-83
2021/03/18 11:59:44;;;;;;;6.03;3.37;;;;;;;8.93;62.22;98664.30;1748248;80;21246;31
2021/03/18 12:05:37;;;;;;;15.18;7.30;;;;;;;9.40;65.37;98662.20;1756692;79;21162;-91
2021/03/18 12:08:38;;;;;;;11.15;6.55;;;;;;;9.68;65.89;98653.66;1650223;78;21274;-91
2021/03/18 12:11:07;;;;;;;12.00;6.30;;;;;;;9.90;65.22;98657.78;1646416;86;21189;-90
2021/03/18 12:13:36;;;;;;;9.63;4.12;;;;;;;9.68;60.32;98657.09;1635181;86;21186;-89
2021/03/18 12:16:11;;;;;;;6.25;2.83;;;;;;;9.53;60.37;98658.39;1593799;86;21307;-85
2021/03/18 12:18:51;;;;;;;5.20;2.60;;;;;;;9.45;61.08;98647.80;1614624;87;21219;-85
2021/03/18 12:21:19;;;;;;;7.50;3.77;;;;;;;9.18;59.13;98646.83;1580551;90;21157;-82
2021/03/18 12:23:47;;;;;;;7.42;4.53;;;;;;;9.19;58.04;98649.39;1613909;88;21159;-84
2021/03/18 12:26:14;;;;;;;6.10;3.45;;;;;;;9.25;57.59;98647.05;1648427;85;21197;-82
2021/03/18 12:28:42;;;;;;;13.83;7.25;;;;;;;9.27;59.26;98643.55;1645448;87;21307;-82
2021/03/18 12:31:09;;;;;;;6.50;4.03;;;;;;;9.30;60.07;98643.44;1606070;88;21202;-83
2021/03/18 12:33:37;;;;;;;10.35;7.37;;;;;;;9.45;60.64;98643.91;1613542;86;21261;-85
2021/03/18 12:36:06;;;;;;;4.42;2.72;;;;;;;9.53;59.97;98641.98;1646496;84;21232;-89